Aeroporto :
LOGIN :

Iscrizione | Disclaimer

   EN    FR    IT 

 










Sommario :    VFR   VFR Marginale   IFR   IFR Intensivo   IFR Molto Intensivo
Visibilità : 
Base nubi : 
>= 8 km
>= 3000ft
5 / 8 km
1000 / 3000 ft
1500m / 5 km
500 / 1000 ft
800 / 1500m
200 / 500 ft
< 800m
< 200 ft
Simboli :   Temporali  Nebbia  Neve Forte  Precipitazioni Forti  Vento > 20 kt
SIGMETs :   Varie  Temporali  Ghiacco  Turbolenza  Onda orograficha  Ceneri Vulcaniche






- Altitudine del aeroporto : 1140 ft
- Codice IATA : VHM


ESNV - Vilhelmina

ULTIMO METAR :
  • 072050Z AUTO VRB01KT 9999 NCD M09/M11 Q0981

METARs OBSOLETI :
  • 072020Z AUTO 00000KT 9999 NCD M08/M10 Q0981
  • 071950Z AUTO VRB02KT 9999 NCD M08/M09 Q0981
  • 071920Z AUTO 21004KT 9999 NCD M05/M07 Q0981
  • 071850Z AUTO VRB03KT 9999 NCD M07/M09 Q0981
  • 071820Z AUTO 00000KT 9999 FEW130/// M09/M11 Q0981

TAF N/A



MetMap, La meteo Aeronautica in un colpo d'occhio ! - Copyright ORBIFLY Dicembre 2007 - Disclaimer

ORBIFLY MET'MAP TEAM :

Programmazione e sviluppo : Alexandra Zaïnal
Concezione : Baudouin d'Aumeries
Aiuto per la programmazione : Marc-Olivier Méhu
Supporto tecnico e logistico : Manuel Goepfert
Aiuto per la traduzione : Arnaldo La Scala

Contatto : metmap@orbifly.com




FONTI E CREDITI :

   NOAA